In Rescue
 
Open Full Screen Window  High Contrast Mode
Wind Gusting 00 knots
06
October 30, 2020 1:45 AM EDT
Weather Information
Wind Direction
  360 °
Wind Speed
  06 kt (7 mph)
Wind Gust
  00 kt (0 mph)
Altimeter
29.79 in
Visibility
10 SM
Temperature
07° C
45° F
Dewpoint
05° C
41° F
Humidity
87%
1hr Rain Fall
00.00 in.
24hr Rain Fall
01.45 in.
Sky Condition
Overcast @ 2,200 ft
Scattered @ 1,200 ft
MVFR

METAR KPOV 300545Z AUTO 36006KT 10SM SCT012 OVC022 07/05 A2979 RMK AO2 T00700052 PWINO

FAA Disclaimer: The data displayed is for advisory purposes only and is not to be used for flight planning or operations.